Columbus Air Force Base
KCBM : now visible

Airfield :











YOU CAN JOIN US ON...

 
LOGIN :

Register | Disclaimer

   EN    FR    IT 

 









Legend :    VFR   Marginal VFR   IFR   Intensive IFR   Very Intensive IFR
Visi :
Ceiling :
>= 8 km
>= 3000ft
5 to 8 km
1000 to 3000 ft
1500m to 5 km
500 to 1000 ft
800 to 1500m
200 to 500 ft
< 800m
< 200 ft
Symbols :   Thunderstorms  Fog  Heavy snow  Heavy precipitations  Wind > 20 kt






- Airport Elevation : 219 ft


KCBM - Columbus Air Force Base

CURRENT METAR :
  • 261711Z AUTO 31013KT 10SM SCT025 BKN031 BKN046 09/04 A3006 RMK AO2 SLP182

EXPIRED METARs :
  • 261656Z AUTO 31013KT 10SM BKN024 BKN032 OVC040 09/04 A3006 RMK AO2 CIG 024V034 SLP182 T00890039
  • 261646Z AUTO 30012KT 10SM FEW023 BKN032 BKN040 BKN048 OVC130 09/05 A3006 RMK AO2 SLP182
  • 261636Z 30011KT 10SM SCT023 BKN032 BKN038 BKN130 09/04 A3006 RMK AO2A SLP182
  • 261556Z AUTO 30011KT 10SM BKN016 BKN023 OVC038 08/05 A3006 RMK AO2 SLP182 T00810050
  • 261526Z AUTO 30012KT 10SM BKN014 08/06 A3004 RMK AO2 SLP176
  • 261516Z AUTO 30010KT 10SM BKN015 BKN055 08/06 A3005 RMK AO2 CIG 015V055 BKN015 V SCT SLP179
  • 261501Z AUTO 29010KT 10SM SCT012 SCT028 BKN039 BKN055 08/06 A3005 RMK AO2 SLP179
  • 261448Z AUTO 30007KT 10SM SCT010 BKN027 BKN039 OVC050 08/06 A3005 RMK AO2 RAE1358DZB1358E1359RAB1359E11DZB11E12RAB15E45DZB45E48 CIG 010V027 SLP179
  • 261435Z AUTO 29010KT 10SM -RA BKN010 BKN024 OVC041 08/06 A3004 RMK AO2 RAE1358DZB1358E1359RAB1359E11DZB11E12RAB15 CIG 008V010 CIG 009 RWY13C SLP176
  • 261415Z AUTO 30009KT 10SM -RA OVC008 08/07 A3003 RMK AO2 RAE1358DZB1358E1359RAB1359E11DZB11E12RAB15 SLP172

TAF TAF KCBM
Valid from the 26 at 17:00 until the 27 at 23:00 UTC


261700Z 2617/2723 31010KT 9999 SCT015 BKN025 650505 QNH3006INS
BECMG 2618/2619 30012G18KT 9999 BKN025 620305 QNH3005INS
BECMG 2701/2702 32009KT 9999 BKN030 QNH3015INS
BECMG 2713/2714 VRB06KT 9999 SKC QNH3023INS TX10/2619Z TN00/2711Z



MET'MAP, your aeronautical weather chart ! - Copyright ORBIFLY December 2007 - Disclaimer

ORBIFLY MET'MAP TEAM :

Programming & Development : Alexandra Zaïnal
Concept & original design : Baudouin d'Aumeries
Assistance for programming : Marc-Olivier Méhu
Technical & hardware support : Manuel Goepfert

Contact : metmap@orbifly.com




SOURCES & CREDITS :

   NOAA       Earth
Advisory